sensor_id;sensor_type;location;lat;lon;timestamp;pressure;altitude;pressure_sealevel;temperature;humidity
9746;BME280;4912;50.836;12.958;2023-02-18T00:02:27;98052.69;;;10.72;100.00
9746;BME280;4912;50.836;12.958;2023-02-18T00:05:00;98043.78;;;10.68;100.00
9746;BME280;4912;50.836;12.958;2023-02-18T00:07:33;98046.88;;;10.70;100.00
9746;BME280;4912;50.836;12.958;2023-02-18T00:10:06;98048.09;;;10.69;100.00
9746;BME280;4912;50.836;12.958;2023-02-18T00:12:38;98044.56;;;10.68;100.00
9746;BME280;4912;50.836;12.958;2023-02-18T00:15:09;98053.63;;;10.69;100.00
9746;BME280;4912;50.836;12.958;2023-02-18T00:17:39;98057.47;;;10.72;100.00
9746;BME280;4912;50.836;12.958;2023-02-18T00:20:12;98064.38;;;10.67;100.00
9746;BME280;4912;50.836;12.958;2023-02-18T00:22:43;98065.94;;;10.68;100.00
9746;BME280;4912;50.836;12.958;2023-02-18T00:25:13;98060.41;;;10.59;100.00
9746;BME280;4912;50.836;12.958;2023-02-18T00:27:44;98070.41;;;10.47;100.00
9746;BME280;4912;50.836;12.958;2023-02-18T00:30:14;98063.78;;;10.45;100.00
9746;BME280;4912;50.836;12.958;2023-02-18T00:32:45;98062.56;;;10.46;100.00
9746;BME280;4912;50.836;12.958;2023-02-18T00:35:18;98053.94;;;10.44;100.00
9746;BME280;4912;50.836;12.958;2023-02-18T00:37:50;98049.31;;;10.50;100.00
9746;BME280;4912;50.836;12.958;2023-02-18T00:40:21;98054.84;;;10.50;100.00
9746;BME280;4912;50.836;12.958;2023-02-18T00:42:51;98048.28;;;10.47;100.00
9746;BME280;4912;50.836;12.958;2023-02-18T00:45:22;98054.84;;;10.50;100.00
9746;BME280;4912;50.836;12.958;2023-02-18T00:47:52;98062.38;;;10.49;100.00
9746;BME280;4912;50.836;12.958;2023-02-18T00:50:25;98063.16;;;10.50;100.00
9746;BME280;4912;50.836;12.958;2023-02-18T00:52:56;98060.41;;;10.50;100.00
9746;BME280;4912;50.836;12.958;2023-02-18T00:55:27;98069.63;;;10.56;100.00
9746;BME280;4912;50.836;12.958;2023-02-18T00:57:57;98059.94;;;10.51;100.00
9746;BME280;4912;50.836;12.958;2023-02-18T01:00:27;98059.78;;;10.55;100.00
9746;BME280;4912;50.836;12.958;2023-02-18T01:02:58;98066.56;;;10.54;100.00
9746;BME280;4912;50.836;12.958;2023-02-18T01:05:31;98071.47;;;10.59;100.00
9746;BME280;4912;50.836;12.958;2023-02-18T01:08:06;98068.72;;;10.59;100.00
9746;BME280;4912;50.836;12.958;2023-02-18T01:10:41;98058.25;;;10.54;100.00
9746;BME280;4912;50.836;12.958;2023-02-18T01:13:14;98062.69;;;10.60;100.00
9746;BME280;4912;50.836;12.958;2023-02-18T01:15:45;98068.09;;;10.64;100.00
9746;BME280;4912;50.836;12.958;2023-02-18T01:18:16;98066.69;;;10.68;100.00
9746;BME280;4912;50.836;12.958;2023-02-18T01:20:49;98068.56;;;10.72;100.00
9746;BME280;4912;50.836;12.958;2023-02-18T01:23:19;98069.00;;;10.61;100.00
9746;BME280;4912;50.836;12.958;2023-02-18T01:25:50;98067.00;;;10.61;100.00
9746;BME280;4912;50.836;12.958;2023-02-18T01:28:20;98061.78;;;10.63;100.00
9746;BME280;4912;50.836;12.958;2023-02-18T01:30:52;98059.94;;;10.70;100.00
9746;BME280;4912;50.836;12.958;2023-02-18T01:33:24;98061.16;;;10.78;100.00
9746;BME280;4912;50.836;12.958;2023-02-18T01:35:57;98051.94;;;10.72;100.00
9746;BME280;4912;50.836;12.958;2023-02-18T01:38:28;98055.94;;;10.71;100.00
9746;BME280;4912;50.836;12.958;2023-02-18T01:40:58;98059.16;;;10.69;100.00
9746;BME280;4912;50.836;12.958;2023-02-18T01:43:29;98059.16;;;10.69;100.00
9746;BME280;4912;50.836;12.958;2023-02-18T01:46:13;98053.63;;;10.69;100.00
9746;BME280;4912;50.836;12.958;2023-02-18T01:48:49;98049.03;;;10.66;100.00
9746;BME280;4912;50.836;12.958;2023-02-18T01:51:26;98041.03;;;10.68;100.00
9746;BME280;4912;50.836;12.958;2023-02-18T01:54:02;98047.63;;;10.71;100.00
9746;BME280;4912;50.836;12.958;2023-02-18T01:56:38;98047.16;;;10.72;100.00
9746;BME280;4912;50.836;12.958;2023-02-18T01:59:15;98046.69;;;10.74;100.00
9746;BME280;4912;50.836;12.958;2023-02-18T02:01:48;98045.47;;;10.75;100.00
9746;BME280;4912;50.836;12.958;2023-02-18T02:04:19;98025.97;;;10.69;100.00
9746;BME280;4912;50.836;12.958;2023-02-18T02:06:52;98040.25;;;10.67;100.00
9746;BME280;4912;50.836;12.958;2023-02-18T02:09:24;98043.78;;;10.68;100.00
9746;BME280;4912;50.836;12.958;2023-02-18T02:15:22;98051.63;;;10.79;100.00
9746;BME280;4912;50.836;12.958;2023-02-18T02:18:16;98046.25;;;10.75;100.00
9746;BME280;4912;50.836;12.958;2023-02-18T02:21:12;98048.09;;;10.69;100.00
9746;BME280;4912;50.836;12.958;2023-02-18T02:27:19;98061.03;;;10.54;100.00
9746;BME280;4912;50.836;12.958;2023-02-18T02:30:18;98058.56;;;10.56;100.00
9746;BME280;4912;50.836;12.958;2023-02-18T02:33:10;98046.44;;;10.53;100.00
9746;BME280;4912;50.836;12.958;2023-02-18T02:35:55;98049.63;;;10.43;100.00
9746;BME280;4912;50.836;12.958;2023-02-18T02:38:32;98051.50;;;10.46;100.00
9746;BME280;4912;50.836;12.958;2023-02-18T02:41:12;98036.72;;;10.49;100.00
9746;BME280;4912;50.836;12.958;2023-02-18T02:43:58;98052.88;;;10.41;100.00
9746;BME280;4912;50.836;12.958;2023-02-18T02:46:40;98051.94;;;10.35;100.00
9746;BME280;4912;50.836;12.958;2023-02-18T02:49:25;98059.31;;;10.29;100.00
9746;BME280;4912;50.836;12.958;2023-02-18T02:52:08;98041.34;;;10.24;100.00
9746;BME280;4912;50.836;12.958;2023-02-18T02:54:41;98060.56;;;10.19;100.00
9746;BME280;4912;50.836;12.958;2023-02-18T02:57:43;98055.28;;;10.12;100.00
9746;BME280;4912;50.836;12.958;2023-02-18T03:00:23;98042.81;;;10.07;100.00
9746;BME280;4912;50.836;12.958;2023-02-18T03:03:21;98049.28;;;9.95;100.00
9746;BME280;4912;50.836;12.958;2023-02-18T03:06:36;98053.53;;;9.87;100.00
9746;BME280;4912;50.836;12.958;2023-02-18T03:09:34;98056.59;;;9.80;100.00
9746;BME280;4912;50.836;12.958;2023-02-18T03:12:17;98052.16;;;9.82;100.00
9746;BME280;4912;50.836;12.958;2023-02-18T03:15:01;98061.50;;;9.85;100.00
9746;BME280;4912;50.836;12.958;2023-02-18T03:17:39;98053.22;;;9.85;100.00
9746;BME280;4912;50.836;12.958;2023-02-18T03:20:19;98053.84;;;9.89;100.00
9746;BME280;4912;50.836;12.958;2023-02-18T03:22:53;98052.94;;;9.92;100.00
9746;BME280;4912;50.836;12.958;2023-02-18T03:25:30;98056.94;;;10.00;100.00
9746;BME280;4912;50.836;12.958;2023-02-18T03:28:05;98056.19;;;10.09;100.00
9746;BME280;4912;50.836;12.958;2023-02-18T03:30:41;98060.94;;;10.08;100.00
9746;BME280;4912;50.836;12.958;2023-02-18T03:33:16;98071.88;;;10.12;100.00
9746;BME280;4912;50.836;12.958;2023-02-18T03:35:54;98061.25;;;10.10;100.00
9746;BME280;4912;50.836;12.958;2023-02-18T03:38:30;98058.50;;;10.10;100.00
9746;BME280;4912;50.836;12.958;2023-02-18T03:41:06;98053.56;;;10.14;100.00
9746;BME280;4912;50.836;12.958;2023-02-18T03:43:39;98053.94;;;10.16;100.00
9746;BME280;4912;50.836;12.958;2023-02-18T03:46:09;98046.41;;;10.17;100.00
9746;BME280;4912;50.836;12.958;2023-02-18T03:48:40;98048.03;;;10.14;100.00
9746;BME280;4912;50.836;12.958;2023-02-18T03:51:10;98051.16;;;10.16;100.00
9746;BME280;4912;50.836;12.958;2023-02-18T03:53:41;98054.69;;;10.17;100.00
9746;BME280;4912;50.836;12.958;2023-02-18T03:56:15;98045.03;;;10.21;100.00
9746;BME280;4912;50.836;12.958;2023-02-18T03:58:45;98044.84;;;10.16;100.00
9746;BME280;4912;50.836;12.958;2023-02-18T04:01:16;98046.56;;;10.22;100.00
9746;BME280;4912;50.836;12.958;2023-02-18T04:03:46;98047.00;;;10.21;100.00
9746;BME280;4912;50.836;12.958;2023-02-18T04:06:17;98049.31;;;10.22;100.00
9746;BME280;4912;50.836;12.958;2023-02-18T04:08:47;98055.78;;;10.29;100.00
9746;BME280;4912;50.836;12.958;2023-02-18T04:11:20;98051.94;;;10.35;100.00
9746;BME280;4912;50.836;12.958;2023-02-18T04:13:51;98049.78;;;10.39;100.00
9746;BME280;4912;50.836;12.958;2023-02-18T04:16:21;98054.28;;;10.37;100.00
9746;BME280;4912;50.836;12.958;2023-02-18T04:18:51;98058.69;;;10.43;100.00
9746;BME280;4912;50.836;12.958;2023-02-18T04:21:22;98037.50;;;10.40;100.00
9746;BME280;4912;50.836;12.958;2023-02-18T04:23:52;98048.25;;;10.38;100.00
9746;BME280;4912;50.836;12.958;2023-02-18T04:26:25;98042.72;;;10.38;100.00
9746;BME280;4912;50.836;12.958;2023-02-18T04:28:56;98045.50;;;10.38;100.00
9746;BME280;4912;50.836;12.958;2023-02-18T04:31:27;98044.44;;;10.36;100.00
9746;BME280;4912;50.836;12.958;2023-02-18T04:33:57;98031.50;;;10.23;100.00
9746;BME280;4912;50.836;12.958;2023-02-18T04:36:28;98040.44;;;10.18;100.00
9746;BME280;4912;50.836;12.958;2023-02-18T04:38:58;98043.91;;;10.10;100.00
9746;BME280;4912;50.836;12.958;2023-02-18T04:41:31;98023.94;;;10.06;100.00
9746;BME280;4912;50.836;12.958;2023-02-18T04:44:01;98023.63;;;10.04;100.00
9746;BME280;4912;50.836;12.958;2023-02-18T04:46:32;98012.09;;;10.05;100.00
9746;BME280;4912;50.836;12.958;2023-02-18T04:49:02;98017.94;;;10.07;100.00
9746;BME280;4912;50.836;12.958;2023-02-18T04:51:33;98039.44;;;10.03;100.00
9746;BME280;4912;50.836;12.958;2023-02-18T04:54:04;98038.97;;;10.05;100.00
9746;BME280;4912;50.836;12.958;2023-02-18T04:56:37;98040.22;;;10.04;100.00
9746;BME280;4912;50.836;12.958;2023-02-18T04:59:07;98041.25;;;9.97;100.00
9746;BME280;4912;50.836;12.958;2023-02-18T05:01:38;98031.91;;;9.95;100.00
9746;BME280;4912;50.836;12.958;2023-02-18T05:04:08;98044.97;;;9.94;100.00
9746;BME280;4912;50.836;12.958;2023-02-18T05:06:39;98038.38;;;10.01;100.00
9746;BME280;4912;50.836;12.958;2023-02-18T05:09:09;98037.88;;;10.02;100.00
9746;BME280;4912;50.836;12.958;2023-02-18T05:11:42;98036.38;;;10.01;100.00
9746;BME280;4912;50.836;12.958;2023-02-18T05:14:13;98022.84;;;10.03;100.00
9746;BME280;4912;50.836;12.958;2023-02-18T05:16:44;98020.84;;;10.04;100.00
9746;BME280;4912;50.836;12.958;2023-02-18T05:19:15;98005.97;;;10.01;100.00
9746;BME280;4912;50.836;12.958;2023-02-18T05:21:45;98013.16;;;10.08;100.00
9746;BME280;4912;50.836;12.958;2023-02-18T05:24:16;98003.81;;;10.14;100.00
9746;BME280;4912;50.836;12.958;2023-02-18T05:26:49;97999.66;;;10.10;100.00
9746;BME280;4912;50.836;12.958;2023-02-18T05:29:19;97996.75;;;10.13;100.00
9746;BME280;4912;50.836;12.958;2023-02-18T05:31:50;97985.69;;;10.13;100.00
9746;BME280;4912;50.836;12.958;2023-02-18T05:34:20;97982.91;;;10.13;100.00
9746;BME280;4912;50.836;12.958;2023-02-18T05:36:51;97989.41;;;10.19;100.00
9746;BME280;4912;50.836;12.958;2023-02-18T05:39:21;97984.34;;;10.27;100.00
9746;BME280;4912;50.836;12.958;2023-02-18T05:41:54;97973.88;;;10.31;100.00
9746;BME280;4912;50.836;12.958;2023-02-18T05:44:24;97983.44;;;10.30;100.00
9746;BME280;4912;50.836;12.958;2023-02-18T05:47:02;97963.00;;;10.27;100.00
9746;BME280;4912;50.836;12.958;2023-02-18T05:49:38;97963.47;;;10.17;100.00
9746;BME280;4912;50.836;12.958;2023-02-18T05:52:09;97960.38;;;10.24;100.00
9746;BME280;4912;50.836;12.958;2023-02-18T05:54:40;97947.00;;;10.32;100.00
9746;BME280;4912;50.836;12.958;2023-02-18T05:57:13;97948.25;;;10.31;100.00
9746;BME280;4912;50.836;12.958;2023-02-18T05:59:44;97947.28;;;10.15;100.00
9746;BME280;4912;50.836;12.958;2023-02-18T06:02:14;97950.34;;;10.08;100.00
9746;BME280;4912;50.836;12.958;2023-02-18T06:04:45;97944.88;;;10.17;100.00
9746;BME280;4912;50.836;12.958;2023-02-18T06:07:15;97943.75;;;10.15;100.00
9746;BME280;4912;50.836;12.958;2023-02-18T06:09:46;97941.75;;;10.15;100.00
9746;BME280;4912;50.836;12.958;2023-02-18T06:12:20;97938.69;;;10.13;100.00
9746;BME280;4912;50.836;12.958;2023-02-18T06:14:50;97930.09;;;10.20;100.00
9746;BME280;4912;50.836;12.958;2023-02-18T06:17:20;97926.13;;;10.21;100.00
9746;BME280;4912;50.836;12.958;2023-02-18T06:19:51;97917.38;;;10.23;100.00
9746;BME280;4912;50.836;12.958;2023-02-18T06:22:21;97920.28;;;10.19;100.00
9746;BME280;4912;50.836;12.958;2023-02-18T06:24:52;97919.66;;;10.15;100.00
9746;BME280;4912;50.836;12.958;2023-02-18T06:27:25;97932.22;;;10.07;100.00
9746;BME280;4912;50.836;12.958;2023-02-18T06:29:55;97923.03;;;10.01;100.00
9746;BME280;4912;50.836;12.958;2023-02-18T06:32:26;97919.50;;;10.10;100.00
9746;BME280;4912;50.836;12.958;2023-02-18T06:34:56;97915.97;;;10.00;100.00
9746;BME280;4912;50.836;12.958;2023-02-18T06:37:26;97911.06;;;10.04;100.00
9746;BME280;4912;50.836;12.958;2023-02-18T06:39:57;97917.19;;;10.08;100.00
9746;BME280;4912;50.836;12.958;2023-02-18T06:42:30;97908.13;;;10.08;100.00
9746;BME280;4912;50.836;12.958;2023-02-18T06:45:00;97912.44;;;10.09;100.00
9746;BME280;4912;50.836;12.958;2023-02-18T06:47:32;97920.88;;;10.14;100.00
9746;BME280;4912;50.836;12.958;2023-02-18T06:50:04;97922.41;;;10.15;100.00
9746;BME280;4912;50.836;12.958;2023-02-18T06:52:36;97920.00;;;10.17;100.00
9746;BME280;4912;50.836;12.958;2023-02-18T06:55:07;97907.03;;;10.14;100.00
9746;BME280;4912;50.836;12.958;2023-02-18T06:57:40;97907.03;;;10.14;100.00
9746;BME280;4912;50.836;12.958;2023-02-18T07:00:11;97903.06;;;10.06;100.00
9746;BME280;4912;50.836;12.958;2023-02-18T07:02:42;97900.91;;;10.19;100.00
9746;BME280;4912;50.836;12.958;2023-02-18T07:05:13;97900.00;;;10.22;100.00
9746;BME280;4912;50.836;12.958;2023-02-18T07:07:43;97894.16;;;10.20;100.00
9746;BME280;4912;50.836;12.958;2023-02-18T07:10:14;97894.16;;;10.20;100.00
9746;BME280;4912;50.836;12.958;2023-02-18T07:12:47;97883.72;;;10.24;100.00
9746;BME280;4912;50.836;12.958;2023-02-18T07:15:18;97881.72;;;10.25;100.00
9746;BME280;4912;50.836;12.958;2023-02-18T07:17:50;97884.31;;;10.29;100.00
9746;BME280;4912;50.836;12.958;2023-02-18T07:20:21;97875.09;;;10.41;100.00
9746;BME280;4912;50.836;12.958;2023-02-18T07:22:52;97870.91;;;10.45;100.00
9746;BME280;4912;50.836;12.958;2023-02-18T07:25:23;97870.75;;;10.49;100.00
9746;BME280;4912;50.836;12.958;2023-02-18T07:27:56;97867.66;;;10.56;100.00
9746;BME280;4912;50.836;12.958;2023-02-18T07:30:26;97863.03;;;10.62;100.00
9746;BME280;4912;50.836;12.958;2023-02-18T07:32:56;97859.94;;;10.69;100.00
9746;BME280;4912;50.836;12.958;2023-02-18T07:35:29;97855.63;;;10.68;100.00
9746;BME280;4912;50.836;12.958;2023-02-18T07:38:00;97850.84;;;10.78;100.00
9746;BME280;4912;50.836;12.958;2023-02-18T07:40:30;97845.25;;;10.87;100.00
9746;BME280;4912;50.836;12.958;2023-02-18T07:43:03;97853.22;;;10.94;100.00
9746;BME280;4912;50.836;12.958;2023-02-18T07:45:34;97848.97;;;11.07;100.00
9746;BME280;4912;50.836;12.958;2023-02-18T07:48:07;97845.09;;;11.14;100.00
9746;BME280;4912;50.836;12.958;2023-02-18T07:50:38;97838.38;;;11.30;100.00
9746;BME280;4912;50.836;12.958;2023-02-18T07:53:10;97843.19;;;11.44;100.00
9746;BME280;4912;50.836;12.958;2023-02-18T07:55:41;97837.09;;;11.55;100.00
9746;BME280;4912;50.836;12.958;2023-02-18T07:58:26;97837.00;;;11.49;100.00
9746;BME280;4912;50.836;12.958;2023-02-18T08:00:57;97837.00;;;11.49;100.00
9746;BME280;4912;50.836;12.958;2023-02-18T08:03:30;97834.34;;;11.55;100.00
9746;BME280;4912;50.836;12.958;2023-02-18T08:06:02;97830.72;;;11.48;100.00
9746;BME280;4912;50.836;12.958;2023-02-18T08:08:34;97832.81;;;11.54;100.00
9746;BME280;4912;50.836;12.958;2023-02-18T08:11:04;97827.00;;;11.52;100.00
9746;BME280;4912;50.836;12.958;2023-02-18T08:13:48;97819.50;;;11.43;100.00
9746;BME280;4912;50.836;12.958;2023-02-18T08:16:19;97829.66;;;11.46;100.00
9746;BME280;4912;50.836;12.958;2023-02-18T08:18:51;97826.41;;;11.47;100.00
9746;BME280;4912;50.836;12.958;2023-02-18T08:21:23;97817.59;;;11.49;100.00
9746;BME280;4912;50.836;12.958;2023-02-18T08:23:56;97826.16;;;11.60;100.00
9746;BME280;4912;50.836;12.958;2023-02-18T08:26:27;97825.00;;;11.67;100.00
9746;BME280;4912;50.836;12.958;2023-02-18T08:29:00;97821.75;;;11.68;100.00
9746;BME280;4912;50.836;12.958;2023-02-18T08:31:31;97810.66;;;11.77;100.00
9746;BME280;4912;50.836;12.958;2023-02-18T08:34:02;97811.56;;;11.74;100.00
9746;BME280;4912;50.836;12.958;2023-02-18T08:36:33;97810.81;;;11.74;100.00
9746;BME280;4912;50.836;12.958;2023-02-18T08:39:04;97817.22;;;11.80;100.00
9746;BME280;4912;50.836;12.958;2023-02-18T08:41:35;97807.47;;;11.84;100.00
9746;BME280;4912;50.836;12.958;2023-02-18T08:44:08;97800.13;;;11.81;100.00
9746;BME280;4912;50.836;12.958;2023-02-18T08:46:38;97790.28;;;11.80;100.00
9746;BME280;4912;50.836;12.958;2023-02-18T08:49:08;97802.31;;;11.77;100.00
9746;BME280;4912;50.836;12.958;2023-02-18T08:51:39;97784.31;;;11.73;100.00
9746;BME280;4912;50.836;12.958;2023-02-18T08:54:09;97786.81;;;11.71;100.00
9746;BME280;4912;50.836;12.958;2023-02-18T08:56:40;97801.72;;;11.73;100.00
9746;BME280;4912;50.836;12.958;2023-02-18T08:59:13;97794.63;;;11.72;100.00
9746;BME280;4912;50.836;12.958;2023-02-18T09:01:43;97801.44;;;11.71;100.00
9746;BME280;4912;50.836;12.958;2023-02-18T09:04:14;97786.31;;;11.72;100.00
9746;BME280;4912;50.836;12.958;2023-02-18T09:06:44;97774.78;;;11.74;100.00
9746;BME280;4912;50.836;12.958;2023-02-18T09:09:16;97778.75;;;11.73;100.00
9746;BME280;4912;50.836;12.958;2023-02-18T09:11:46;97766.06;;;11.66;100.00
9746;BME280;4912;50.836;12.958;2023-02-18T09:14:20;97770.06;;;11.65;100.00
9746;BME280;4912;50.836;12.958;2023-02-18T09:16:50;97772.03;;;11.50;100.00
9746;BME280;4912;50.836;12.958;2023-02-18T09:19:20;97779.31;;;11.47;100.00
9746;BME280;4912;50.836;12.958;2023-02-18T09:21:51;97760.69;;;11.48;100.00
9746;BME280;4912;50.836;12.958;2023-02-18T09:24:26;97774.03;;;11.49;100.00
9746;BME280;4912;50.836;12.958;2023-02-18T09:26:57;97769.88;;;11.54;100.00
9746;BME280;4912;50.836;12.958;2023-02-18T09:29:30;97767.09;;;11.54;100.00
9746;BME280;4912;50.836;12.958;2023-02-18T09:32:02;97761.06;;;11.56;100.00
9746;BME280;4912;50.836;12.958;2023-02-18T09:34:33;97741.38;;;11.68;100.00
9746;BME280;4912;50.836;12.958;2023-02-18T09:37:04;97741.69;;;11.70;100.00
9746;BME280;4912;50.836;12.958;2023-02-18T09:39:35;97749.59;;;11.63;100.00
9746;BME280;4912;50.836;12.958;2023-02-18T09:42:09;97735.16;;;11.44;100.00
9746;BME280;4912;50.836;12.958;2023-02-18T09:44:48;97730.66;;;11.46;100.00
9746;BME280;4912;50.836;12.958;2023-02-18T09:47:25;97727.50;;;11.39;100.00
9746;BME280;4912;50.836;12.958;2023-02-18T09:50:05;97719.19;;;11.39;100.00
9746;BME280;4912;50.836;12.958;2023-02-18T09:52:38;97728.56;;;11.41;100.00
9746;BME280;4912;50.836;12.958;2023-02-18T09:55:17;97722.16;;;11.50;100.00
9746;BME280;4912;50.836;12.958;2023-02-18T09:57:50;97713.94;;;11.56;100.00
9746;BME280;4912;50.836;12.958;2023-02-18T10:00:27;97710.34;;;11.64;100.00
9746;BME280;4912;50.836;12.958;2023-02-18T10:03:05;97708.44;;;11.70;100.00
9746;BME280;4912;50.836;12.958;2023-02-18T10:05:45;97705.09;;;11.81;100.00
9746;BME280;4912;50.836;12.958;2023-02-18T10:08:24;97710.44;;;11.84;100.00
9746;BME280;4912;50.836;12.958;2023-02-18T10:10:56;97699.84;;;11.83;100.00
9746;BME280;4912;50.836;12.958;2023-02-18T10:13:28;97704.44;;;11.86;100.00
9746;BME280;4912;50.836;12.958;2023-02-18T10:16:04;97693.25;;;11.95;100.00
9746;BME280;4912;50.836;12.958;2023-02-18T10:18:40;97695.25;;;11.95;100.00
9746;BME280;4912;50.836;12.958;2023-02-18T10:21:16;97689.03;;;12.00;100.00
9746;BME280;4912;50.836;12.958;2023-02-18T10:23:53;97682.13;;;12.10;100.00
9746;BME280;4912;50.836;12.958;2023-02-18T10:26:30;97681.44;;;12.15;100.00
9746;BME280;4912;50.836;12.958;2023-02-18T10:29:08;97678.59;;;12.09;100.00
9746;BME280;4912;50.836;12.958;2023-02-18T10:31:54;97677.50;;;12.21;100.00
9746;BME280;4912;50.836;12.958;2023-02-18T10:34:38;97675.50;;;12.22;100.00
9746;BME280;4912;50.836;12.958;2023-02-18T10:37:28;97673.88;;;12.30;100.00
9746;BME280;4912;50.836;12.958;2023-02-18T10:40:12;97651.13;;;12.46;100.00
9746;BME280;4912;50.836;12.958;2023-02-18T10:42:58;97673.53;;;12.43;100.00
9746;BME280;4912;50.836;12.958;2023-02-18T10:45:40;97664.31;;;12.51;100.00
9746;BME280;4912;50.836;12.958;2023-02-18T10:48:31;97637.31;;;12.52;100.00
9746;BME280;4912;50.836;12.958;2023-02-18T10:51:22;97646.13;;;12.50;100.00
9746;BME280;4912;50.836;12.958;2023-02-18T10:53:57;97661.31;;;12.55;100.00
9746;BME280;4912;50.836;12.958;2023-02-18T10:56:36;97639.63;;;12.53;100.00
9746;BME280;4912;50.836;12.958;2023-02-18T10:59:11;97644.03;;;12.45;100.00
9746;BME280;4912;50.836;12.958;2023-02-18T11:01:43;97651.53;;;12.39;100.00
9746;BME280;4912;50.836;12.958;2023-02-18T11:04:19;97634.81;;;12.34;100.00
9746;BME280;4912;50.836;12.958;2023-02-18T11:06:51;97634.53;;;12.31;100.00
9746;BME280;4912;50.836;12.958;2023-02-18T11:09:38;97618.47;;;12.36;100.00
9746;BME280;4912;50.836;12.958;2023-02-18T11:12:16;97616.00;;;12.43;100.00
9746;BME280;4912;50.836;12.958;2023-02-18T11:14:50;97630.56;;;12.38;100.00
9746;BME280;4912;50.836;12.958;2023-02-18T11:17:35;97646.97;;;12.36;100.00
9746;BME280;4912;50.836;12.958;2023-02-18T11:20:22;97631.16;;;12.42;100.00
9746;BME280;4912;50.836;12.958;2023-02-18T11:23:14;97622.84;;;12.42;100.00
9746;BME280;4912;50.836;12.958;2023-02-18T11:25:58;97624.00;;;12.36;100.00
9746;BME280;4912;50.836;12.958;2023-02-18T11:28:40;97623.63;;;12.28;100.00
9746;BME280;4912;50.836;12.958;2023-02-18T11:31:18;97620.78;;;12.22;100.00
9746;BME280;4912;50.836;12.958;2023-02-18T11:33:52;97620.25;;;12.18;100.00
9746;BME280;4912;50.836;12.958;2023-02-18T11:36:29;97621.97;;;12.16;99.75
9746;BME280;4912;50.836;12.958;2023-02-18T11:39:03;97614.88;;;12.15;99.24
9746;BME280;4912;50.836;12.958;2023-02-18T11:41:39;97630.69;;;12.09;98.78
9746;BME280;4912;50.836;12.958;2023-02-18T11:44:20;97618.19;;;11.99;99.57
9746;BME280;4912;50.836;12.958;2023-02-18T11:47:00;97630.72;;;11.94;99.67
9746;BME280;4912;50.836;12.958;2023-02-18T11:49:33;97619.72;;;12.00;99.12
9746;BME280;4912;50.836;12.958;2023-02-18T11:52:15;97627.06;;;12.03;98.78
9746;BME280;4912;50.836;12.958;2023-02-18T11:54:59;97613.28;;;12.08;98.61
9746;BME280;4912;50.836;12.958;2023-02-18T11:57:33;97618.88;;;11.94;96.94
9746;BME280;4912;50.836;12.958;2023-02-18T12:00:20;97611.06;;;11.77;96.59
9746;BME280;4912;50.836;12.958;2023-02-18T12:02:53;97625.09;;;11.74;97.40
9746;BME280;4912;50.836;12.958;2023-02-18T12:05:27;97610.66;;;11.70;97.45
9746;BME280;4912;50.836;12.958;2023-02-18T12:08:04;97602.06;;;11.68;98.00
9746;BME280;4912;50.836;12.958;2023-02-18T12:10:39;97592.03;;;11.70;96.87
9746;BME280;4912;50.836;12.958;2023-02-18T12:13:21;97603.19;;;11.61;96.06
9746;BME280;4912;50.836;12.958;2023-02-18T12:16:04;97593.19;;;11.64;95.46
9746;BME280;4912;50.836;12.958;2023-02-18T12:18:47;97594.50;;;11.68;95.17
9746;BME280;4912;50.836;12.958;2023-02-18T12:21:35;97587.94;;;11.66;94.37
9746;BME280;4912;50.836;12.958;2023-02-18T12:24:21;97603.19;;;11.61;94.34
9746;BME280;4912;50.836;12.958;2023-02-18T12:27:08;97582.47;;;11.57;93.53
9746;BME280;4912;50.836;12.958;2023-02-18T12:29:57;97603.31;;;11.52;92.68
9746;BME280;4912;50.836;12.958;2023-02-18T12:32:43;97569.22;;;11.46;91.61
9746;BME280;4912;50.836;12.958;2023-02-18T12:35:36;97596.63;;;11.44;91.70
9746;BME280;4912;50.836;12.958;2023-02-18T12:42:01;97607.25;;;11.60;90.22
9746;BME280;4912;50.836;12.958;2023-02-18T12:44:43;97599.66;;;11.61;89.77
9746;BME280;4912;50.836;12.958;2023-02-18T12:50:48;97617.06;;;11.61;87.77
9746;BME280;4912;50.836;12.958;2023-02-18T12:53:34;97612.31;;;11.47;87.77
9746;BME280;4912;50.836;12.958;2023-02-18T12:56:28;97610.09;;;11.51;87.73
9746;BME280;4912;50.836;12.958;2023-02-18T12:59:26;97606.84;;;11.53;87.25
9746;BME280;4912;50.836;12.958;2023-02-18T13:02:22;97602.56;;;11.52;86.55
9746;BME280;4912;50.836;12.958;2023-02-18T13:05:05;97580.38;;;11.52;85.72
9746;BME280;4912;50.836;12.958;2023-02-18T13:07:52;97585.72;;;11.55;84.02
9746;BME280;4912;50.836;12.958;2023-02-18T13:10:53;97571.59;;;11.53;83.31
9746;BME280;4912;50.836;12.958;2023-02-18T13:13:36;97572.47;;;11.59;81.40
9746;BME280;4912;50.836;12.958;2023-02-18T13:16:14;97568.53;;;11.51;80.67
9746;BME280;4912;50.836;12.958;2023-02-18T13:18:52;97563.09;;;11.57;80.04
9746;BME280;4912;50.836;12.958;2023-02-18T13:21:25;97572.53;;;11.65;77.95
9746;BME280;4912;50.836;12.958;2023-02-18T13:23:59;97553.81;;;11.74;76.86
9746;BME280;4912;50.836;12.958;2023-02-18T13:26:32;97566.13;;;11.73;76.89
9746;BME280;4912;50.836;12.958;2023-02-18T13:29:17;97570.59;;;11.85;77.38
9746;BME280;4912;50.836;12.958;2023-02-18T13:32:03;97572.69;;;11.90;77.31
9746;BME280;4912;50.836;12.958;2023-02-18T13:34:44;97554.09;;;11.76;77.29
9746;BME280;4912;50.836;12.958;2023-02-18T13:37:21;97572.16;;;11.72;77.96
9746;BME280;4912;50.836;12.958;2023-02-18T13:39:58;97571.09;;;11.69;79.12
9746;BME280;4912;50.836;12.958;2023-02-18T13:42:35;97568.53;;;11.66;78.41
9746;BME280;4912;50.836;12.958;2023-02-18T13:45:24;97579.13;;;11.67;77.28
9746;BME280;4912;50.836;12.958;2023-02-18T13:47:59;97559.56;;;11.56;76.51
9746;BME280;4912;50.836;12.958;2023-02-18T13:50:38;97555.25;;;11.55;75.74
9746;BME280;4912;50.836;12.958;2023-02-18T13:53:19;97567.00;;;11.50;75.43
9746;BME280;4912;50.836;12.958;2023-02-18T13:55:59;97559.38;;;11.45;75.37
9746;BME280;4912;50.836;12.958;2023-02-18T13:58:36;97569.31;;;11.52;75.82
9746;BME280;4912;50.836;12.958;2023-02-18T14:01:21;97571.88;;;11.55;75.61